sensor_id;sensor_type;location;lat;lon;timestamp;P1;durP1;ratioP1;P2;durP2;ratioP2
65658;SDS011;60181;53.258;6.932;2024-01-30T00:03:11;38.70;;;18.80;;
65658;SDS011;60181;53.258;6.932;2024-01-30T00:07:23;38.70;;;18.80;;
65658;SDS011;60181;53.258;6.932;2024-01-30T00:11:35;35.20;;;18.40;;
65658;SDS011;60181;53.258;6.932;2024-01-30T00:15:47;35.20;;;18.40;;
65658;SDS011;60181;53.258;6.932;2024-01-30T00:19:59;36.10;;;17.40;;
65658;SDS011;60181;53.258;6.932;2024-01-30T00:24:11;36.10;;;17.40;;
65658;SDS011;60181;53.258;6.932;2024-01-30T00:28:23;36.10;;;17.40;;
65658;SDS011;60181;53.258;6.932;2024-01-30T00:32:35;36.00;;;17.50;;
65658;SDS011;60181;53.258;6.932;2024-01-30T00:36:47;36.00;;;17.50;;
65658;SDS011;60181;53.258;6.932;2024-01-30T00:40:59;34.50;;;17.30;;
65658;SDS011;60181;53.258;6.932;2024-01-30T00:45:12;34.50;;;17.30;;
65658;SDS011;60181;53.258;6.932;2024-01-30T00:49:23;34.50;;;17.30;;
65658;SDS011;60181;53.258;6.932;2024-01-30T00:53:35;33.30;;;17.70;;
65658;SDS011;60181;53.258;6.932;2024-01-30T00:57:47;33.30;;;17.70;;
65658;SDS011;60181;53.258;6.932;2024-01-30T01:01:59;35.10;;;17.60;;
65658;SDS011;60181;53.258;6.932;2024-01-30T01:06:11;35.10;;;17.60;;
65658;SDS011;60181;53.258;6.932;2024-01-30T01:10:23;34.60;;;17.30;;
65658;SDS011;60181;53.258;6.932;2024-01-30T01:14:35;34.60;;;17.30;;
65658;SDS011;60181;53.258;6.932;2024-01-30T01:18:47;34.60;;;17.30;;
65658;SDS011;60181;53.258;6.932;2024-01-30T01:22:59;32.60;;;16.80;;
65658;SDS011;60181;53.258;6.932;2024-01-30T01:27:11;32.60;;;16.80;;
65658;SDS011;60181;53.258;6.932;2024-01-30T01:31:23;35.20;;;17.60;;
65658;SDS011;60181;53.258;6.932;2024-01-30T01:35:35;35.20;;;17.60;;
65658;SDS011;60181;53.258;6.932;2024-01-30T01:39:47;33.50;;;16.70;;
65658;SDS011;60181;53.258;6.932;2024-01-30T01:43:59;33.50;;;16.70;;
65658;SDS011;60181;53.258;6.932;2024-01-30T01:48:11;33.50;;;16.70;;
65658;SDS011;60181;53.258;6.932;2024-01-30T01:52:23;34.20;;;16.70;;
65658;SDS011;60181;53.258;6.932;2024-01-30T01:56:35;34.20;;;16.70;;
65658;SDS011;60181;53.258;6.932;2024-01-30T02:00:47;32.20;;;16.90;;
65658;SDS011;60181;53.258;6.932;2024-01-30T02:04:59;32.20;;;16.90;;
65658;SDS011;60181;53.258;6.932;2024-01-30T02:09:11;32.20;;;16.90;;
65658;SDS011;60181;53.258;6.932;2024-01-30T02:13:23;31.70;;;15.90;;
65658;SDS011;60181;53.258;6.932;2024-01-30T02:17:35;31.70;;;15.90;;
65658;SDS011;60181;53.258;6.932;2024-01-30T02:21:47;29.10;;;15.80;;
65658;SDS011;60181;53.258;6.932;2024-01-30T02:25:59;29.10;;;15.80;;
65658;SDS011;60181;53.258;6.932;2024-01-30T02:30:11;28.60;;;15.80;;
65658;SDS011;60181;53.258;6.932;2024-01-30T02:34:23;28.60;;;15.80;;
65658;SDS011;60181;53.258;6.932;2024-01-30T02:38:35;28.60;;;15.80;;
65658;SDS011;60181;53.258;6.932;2024-01-30T02:42:47;28.20;;;15.10;;
65658;SDS011;60181;53.258;6.932;2024-01-30T02:46:59;28.20;;;15.10;;
65658;SDS011;60181;53.258;6.932;2024-01-30T02:51:11;27.90;;;14.90;;
65658;SDS011;60181;53.258;6.932;2024-01-30T02:55:23;27.90;;;14.90;;
65658;SDS011;60181;53.258;6.932;2024-01-30T02:59:35;27.90;;;14.90;;
65658;SDS011;60181;53.258;6.932;2024-01-30T03:03:47;30.00;;;14.80;;
65658;SDS011;60181;53.258;6.932;2024-01-30T03:07:59;30.00;;;14.80;;
65658;SDS011;60181;53.258;6.932;2024-01-30T03:12:11;29.50;;;14.40;;
65658;SDS011;60181;53.258;6.932;2024-01-30T03:16:23;29.50;;;14.40;;
65658;SDS011;60181;53.258;6.932;2024-01-30T03:20:35;28.70;;;14.60;;
65658;SDS011;60181;53.258;6.932;2024-01-30T03:24:47;28.70;;;14.60;;
65658;SDS011;60181;53.258;6.932;2024-01-30T03:28:59;28.70;;;14.60;;
65658;SDS011;60181;53.258;6.932;2024-01-30T03:33:11;32.20;;;14.40;;
65658;SDS011;60181;53.258;6.932;2024-01-30T03:37:23;32.20;;;14.40;;
65658;SDS011;60181;53.258;6.932;2024-01-30T03:41:35;28.10;;;14.40;;
65658;SDS011;60181;53.258;6.932;2024-01-30T03:45:47;28.10;;;14.40;;
65658;SDS011;60181;53.258;6.932;2024-01-30T03:49:59;35.70;;;14.10;;
65658;SDS011;60181;53.258;6.932;2024-01-30T03:54:11;35.70;;;14.10;;
65658;SDS011;60181;53.258;6.932;2024-01-30T03:58:23;35.70;;;14.10;;
65658;SDS011;60181;53.258;6.932;2024-01-30T04:02:35;26.60;;;14.10;;
65658;SDS011;60181;53.258;6.932;2024-01-30T04:06:47;26.60;;;14.10;;
65658;SDS011;60181;53.258;6.932;2024-01-30T04:10:59;26.30;;;13.90;;
65658;SDS011;60181;53.258;6.932;2024-01-30T04:15:11;26.30;;;13.90;;
65658;SDS011;60181;53.258;6.932;2024-01-30T04:19:23;26.30;;;13.90;;
65658;SDS011;60181;53.258;6.932;2024-01-30T04:23:35;27.30;;;13.80;;
65658;SDS011;60181;53.258;6.932;2024-01-30T04:27:47;27.30;;;13.80;;
65658;SDS011;60181;53.258;6.932;2024-01-30T04:31:59;27.10;;;14.00;;
65658;SDS011;60181;53.258;6.932;2024-01-30T04:36:11;27.10;;;14.00;;
65658;SDS011;60181;53.258;6.932;2024-01-30T04:40:23;27.60;;;13.70;;
65658;SDS011;60181;53.258;6.932;2024-01-30T04:44:35;27.60;;;13.70;;
65658;SDS011;60181;53.258;6.932;2024-01-30T04:48:47;27.60;;;13.70;;
65658;SDS011;60181;53.258;6.932;2024-01-30T04:52:59;24.80;;;13.20;;
65658;SDS011;60181;53.258;6.932;2024-01-30T04:57:11;24.80;;;13.20;;
65658;SDS011;60181;53.258;6.932;2024-01-30T05:01:23;26.60;;;14.20;;
65658;SDS011;60181;53.258;6.932;2024-01-30T05:05:35;26.60;;;14.20;;
65658;SDS011;60181;53.258;6.932;2024-01-30T05:09:47;29.70;;;13.70;;
65658;SDS011;60181;53.258;6.932;2024-01-30T05:13:59;29.70;;;13.70;;
65658;SDS011;60181;53.258;6.932;2024-01-30T05:18:10;29.70;;;13.70;;
65658;SDS011;60181;53.258;6.932;2024-01-30T05:22:23;27.40;;;13.60;;
65658;SDS011;60181;53.258;6.932;2024-01-30T05:26:35;27.40;;;13.60;;
65658;SDS011;60181;53.258;6.932;2024-01-30T05:30:46;25.30;;;13.00;;
65658;SDS011;60181;53.258;6.932;2024-01-30T05:34:58;25.30;;;13.00;;
65658;SDS011;60181;53.258;6.932;2024-01-30T05:39:10;25.30;;;13.00;;
65658;SDS011;60181;53.258;6.932;2024-01-30T05:43:22;23.60;;;13.60;;
65658;SDS011;60181;53.258;6.932;2024-01-30T05:47:34;23.60;;;13.60;;
65658;SDS011;60181;53.258;6.932;2024-01-30T05:51:46;28.80;;;13.70;;
65658;SDS011;60181;53.258;6.932;2024-01-30T05:55:59;28.80;;;13.70;;
65658;SDS011;60181;53.258;6.932;2024-01-30T06:00:11;26.90;;;13.20;;
65658;SDS011;60181;53.258;6.932;2024-01-30T06:04:23;26.90;;;13.20;;
65658;SDS011;60181;53.258;6.932;2024-01-30T06:08:34;26.90;;;13.20;;
65658;SDS011;60181;53.258;6.932;2024-01-30T06:12:46;29.60;;;13.10;;
65658;SDS011;60181;53.258;6.932;2024-01-30T06:16:59;29.60;;;13.10;;
65658;SDS011;60181;53.258;6.932;2024-01-30T06:21:10;29.30;;;13.20;;
65658;SDS011;60181;53.258;6.932;2024-01-30T06:25:23;29.30;;;13.20;;
65658;SDS011;60181;53.258;6.932;2024-01-30T06:29:34;29.30;;;13.20;;
65658;SDS011;60181;53.258;6.932;2024-01-30T06:33:47;29.00;;;12.80;;
65658;SDS011;60181;53.258;6.932;2024-01-30T06:37:58;29.00;;;12.80;;
65658;SDS011;60181;53.258;6.932;2024-01-30T06:42:11;26.00;;;12.40;;
65658;SDS011;60181;53.258;6.932;2024-01-30T06:46:22;26.00;;;12.40;;
65658;SDS011;60181;53.258;6.932;2024-01-30T06:50:34;22.20;;;11.00;;
65658;SDS011;60181;53.258;6.932;2024-01-30T06:54:46;22.20;;;11.00;;
65658;SDS011;60181;53.258;6.932;2024-01-30T06:58:58;22.20;;;11.00;;
65658;SDS011;60181;53.258;6.932;2024-01-30T07:03:10;16.40;;;8.80;;
65658;SDS011;60181;53.258;6.932;2024-01-30T07:07:22;16.40;;;8.80;;
65658;SDS011;60181;53.258;6.932;2024-01-30T07:11:34;15.60;;;8.20;;
65658;SDS011;60181;53.258;6.932;2024-01-30T07:15:46;15.60;;;8.20;;
65658;SDS011;60181;53.258;6.932;2024-01-30T07:19:58;17.10;;;8.30;;
65658;SDS011;60181;53.258;6.932;2024-01-30T07:24:10;17.10;;;8.30;;
65658;SDS011;60181;53.258;6.932;2024-01-30T07:28:22;17.10;;;8.30;;
65658;SDS011;60181;53.258;6.932;2024-01-30T07:32:34;13.50;;;7.50;;
65658;SDS011;60181;53.258;6.932;2024-01-30T07:36:46;13.50;;;7.50;;
65658;SDS011;60181;53.258;6.932;2024-01-30T07:40:58;16.60;;;7.30;;
65658;SDS011;60181;53.258;6.932;2024-01-30T07:45:10;16.60;;;7.30;;
65658;SDS011;60181;53.258;6.932;2024-01-30T07:49:22;16.60;;;7.30;;
65658;SDS011;60181;53.258;6.932;2024-01-30T07:53:34;14.40;;;7.20;;
65658;SDS011;60181;53.258;6.932;2024-01-30T07:57:46;14.40;;;7.20;;
65658;SDS011;60181;53.258;6.932;2024-01-30T08:01:58;13.90;;;7.00;;
65658;SDS011;60181;53.258;6.932;2024-01-30T08:06:10;13.90;;;7.00;;
65658;SDS011;60181;53.258;6.932;2024-01-30T08:10:22;12.50;;;6.70;;
65658;SDS011;60181;53.258;6.932;2024-01-30T08:14:34;12.50;;;6.70;;
65658;SDS011;60181;53.258;6.932;2024-01-30T08:18:46;12.50;;;6.70;;
65658;SDS011;60181;53.258;6.932;2024-01-30T08:22:59;45.90;;;7.30;;
65658;SDS011;60181;53.258;6.932;2024-01-30T08:27:10;45.90;;;7.30;;
65658;SDS011;60181;53.258;6.932;2024-01-30T08:31:22;39.40;;;6.70;;
65658;SDS011;60181;53.258;6.932;2024-01-30T08:35:34;39.40;;;6.70;;
65658;SDS011;60181;53.258;6.932;2024-01-30T08:39:46;21.90;;;6.10;;
65658;SDS011;60181;53.258;6.932;2024-01-30T08:43:58;21.90;;;6.10;;
65658;SDS011;60181;53.258;6.932;2024-01-30T08:48:10;21.90;;;6.10;;
65658;SDS011;60181;53.258;6.932;2024-01-30T08:52:22;29.00;;;6.10;;
65658;SDS011;60181;53.258;6.932;2024-01-30T08:56:34;29.00;;;6.10;;
65658;SDS011;60181;53.258;6.932;2024-01-30T09:00:46;18.00;;;6.00;;
65658;SDS011;60181;53.258;6.932;2024-01-30T09:04:58;18.00;;;6.00;;
65658;SDS011;60181;53.258;6.932;2024-01-30T09:09:10;18.00;;;6.00;;
65658;SDS011;60181;53.258;6.932;2024-01-30T09:13:22;15.40;;;5.60;;
65658;SDS011;60181;53.258;6.932;2024-01-30T09:17:34;15.40;;;5.60;;
65658;SDS011;60181;53.258;6.932;2024-01-30T09:21:46;16.10;;;5.70;;
65658;SDS011;60181;53.258;6.932;2024-01-30T09:25:58;16.10;;;5.70;;
65658;SDS011;60181;53.258;6.932;2024-01-30T09:30:10;12.30;;;5.20;;
65658;SDS011;60181;53.258;6.932;2024-01-30T09:34:22;12.30;;;5.20;;
65658;SDS011;60181;53.258;6.932;2024-01-30T09:38:34;12.30;;;5.20;;
65658;SDS011;60181;53.258;6.932;2024-01-30T09:42:46;9.00;;;5.00;;
65658;SDS011;60181;53.258;6.932;2024-01-30T09:46:58;9.00;;;5.00;;
65658;SDS011;60181;53.258;6.932;2024-01-30T09:51:10;9.90;;;4.90;;
65658;SDS011;60181;53.258;6.932;2024-01-30T09:55:22;9.90;;;4.90;;
65658;SDS011;60181;53.258;6.932;2024-01-30T09:59:34;9.90;;;4.90;;
65658;SDS011;60181;53.258;6.932;2024-01-30T10:03:46;12.20;;;4.90;;
65658;SDS011;60181;53.258;6.932;2024-01-30T10:07:58;12.20;;;4.90;;
65658;SDS011;60181;53.258;6.932;2024-01-30T10:12:10;10.50;;;4.90;;
65658;SDS011;60181;53.258;6.932;2024-01-30T10:16:22;10.50;;;4.90;;
65658;SDS011;60181;53.258;6.932;2024-01-30T10:20:34;11.90;;;4.90;;
65658;SDS011;60181;53.258;6.932;2024-01-30T10:24:46;11.90;;;4.90;;
65658;SDS011;60181;53.258;6.932;2024-01-30T10:28:58;11.90;;;4.90;;
65658;SDS011;60181;53.258;6.932;2024-01-30T10:33:10;10.40;;;4.70;;
65658;SDS011;60181;53.258;6.932;2024-01-30T10:37:22;10.40;;;4.70;;
65658;SDS011;60181;53.258;6.932;2024-01-30T10:41:41;11.30;;;4.70;;
65658;SDS011;60181;53.258;6.932;2024-01-30T10:45:46;11.30;;;4.70;;
65658;SDS011;60181;53.258;6.932;2024-01-30T10:49:59;10.10;;;4.60;;
65658;SDS011;60181;53.258;6.932;2024-01-30T10:54:10;10.10;;;4.60;;
65658;SDS011;60181;53.258;6.932;2024-01-30T10:58:22;10.10;;;4.60;;
65658;SDS011;60181;53.258;6.932;2024-01-30T11:02:34;9.80;;;4.40;;
65658;SDS011;60181;53.258;6.932;2024-01-30T11:06:46;9.80;;;4.40;;
65658;SDS011;60181;53.258;6.932;2024-01-30T11:10:58;9.00;;;4.50;;
65658;SDS011;60181;53.258;6.932;2024-01-30T11:15:14;9.00;;;4.50;;
65658;SDS011;60181;53.258;6.932;2024-01-30T11:19:23;9.00;;;4.50;;
65658;SDS011;60181;53.258;6.932;2024-01-30T11:23:34;13.40;;;5.30;;
65658;SDS011;60181;53.258;6.932;2024-01-30T11:27:46;13.40;;;5.30;;
65658;SDS011;60181;53.258;6.932;2024-01-30T11:31:58;12.60;;;5.60;;
65658;SDS011;60181;53.258;6.932;2024-01-30T11:36:10;12.60;;;5.60;;
65658;SDS011;60181;53.258;6.932;2024-01-30T11:40:22;23.10;;;8.80;;
65658;SDS011;60181;53.258;6.932;2024-01-30T11:44:34;23.10;;;8.80;;
65658;SDS011;60181;53.258;6.932;2024-01-30T11:48:46;23.10;;;8.80;;
65658;SDS011;60181;53.258;6.932;2024-01-30T11:52:59;38.80;;;12.00;;
65658;SDS011;60181;53.258;6.932;2024-01-30T11:57:10;38.80;;;12.00;;
65658;SDS011;60181;53.258;6.932;2024-01-30T12:01:22;44.80;;;14.00;;
65658;SDS011;60181;53.258;6.932;2024-01-30T12:05:34;44.80;;;14.00;;
65658;SDS011;60181;53.258;6.932;2024-01-30T12:09:52;50.00;;;15.90;;
65658;SDS011;60181;53.258;6.932;2024-01-30T12:13:58;50.00;;;15.90;;
65658;SDS011;60181;53.258;6.932;2024-01-30T12:18:10;50.00;;;15.90;;
65658;SDS011;60181;53.258;6.932;2024-01-30T12:22:22;55.40;;;17.10;;
65658;SDS011;60181;53.258;6.932;2024-01-30T12:26:34;55.40;;;17.10;;
65658;SDS011;60181;53.258;6.932;2024-01-30T12:30:46;56.60;;;18.10;;
65658;SDS011;60181;53.258;6.932;2024-01-30T12:34:58;56.60;;;18.10;;
65658;SDS011;60181;53.258;6.932;2024-01-30T12:39:12;56.60;;;18.10;;
65658;SDS011;60181;53.258;6.932;2024-01-30T12:43:22;60.50;;;19.30;;
65658;SDS011;60181;53.258;6.932;2024-01-30T12:47:34;60.50;;;19.30;;
65658;SDS011;60181;53.258;6.932;2024-01-30T12:51:46;61.50;;;19.60;;
65658;SDS011;60181;53.258;6.932;2024-01-30T12:55:58;61.50;;;19.60;;
65658;SDS011;60181;53.258;6.932;2024-01-30T13:00:10;74.10;;;23.70;;
65658;SDS011;60181;53.258;6.932;2024-01-30T13:04:22;74.10;;;23.70;;
65658;SDS011;60181;53.258;6.932;2024-01-30T13:08:34;74.10;;;23.70;;
65658;SDS011;60181;53.258;6.932;2024-01-30T13:12:46;78.30;;;24.90;;
65658;SDS011;60181;53.258;6.932;2024-01-30T13:16:58;78.30;;;24.90;;
65658;SDS011;60181;53.258;6.932;2024-01-30T13:21:10;75.80;;;24.50;;
65658;SDS011;60181;53.258;6.932;2024-01-30T13:25:22;75.80;;;24.50;;
65658;SDS011;60181;53.258;6.932;2024-01-30T13:29:34;75.80;;;24.50;;
65658;SDS011;60181;53.258;6.932;2024-01-30T13:33:46;77.00;;;24.60;;
65658;SDS011;60181;53.258;6.932;2024-01-30T13:37:58;77.00;;;24.60;;
65658;SDS011;60181;53.258;6.932;2024-01-30T13:42:10;75.70;;;22.40;;
65658;SDS011;60181;53.258;6.932;2024-01-30T13:46:22;75.70;;;22.40;;
65658;SDS011;60181;53.258;6.932;2024-01-30T13:50:34;66.40;;;21.50;;
65658;SDS011;60181;53.258;6.932;2024-01-30T13:54:46;66.40;;;21.50;;
65658;SDS011;60181;53.258;6.932;2024-01-30T13:58:58;66.40;;;21.50;;
65658;SDS011;60181;53.258;6.932;2024-01-30T14:03:10;67.30;;;22.10;;
65658;SDS011;60181;53.258;6.932;2024-01-30T14:07:22;67.30;;;22.10;;
65658;SDS011;60181;53.258;6.932;2024-01-30T14:11:34;72.60;;;21.30;;
65658;SDS011;60181;53.258;6.932;2024-01-30T14:15:46;72.60;;;21.30;;
65658;SDS011;60181;53.258;6.932;2024-01-30T14:19:58;65.20;;;20.50;;
65658;SDS011;60181;53.258;6.932;2024-01-30T14:24:10;65.20;;;20.50;;
65658;SDS011;60181;53.258;6.932;2024-01-30T14:28:22;65.20;;;20.50;;
65658;SDS011;60181;53.258;6.932;2024-01-30T14:32:34;59.90;;;19.10;;
65658;SDS011;60181;53.258;6.932;2024-01-30T14:36:46;59.90;;;19.10;;
65658;SDS011;60181;53.258;6.932;2024-01-30T14:40:58;54.90;;;18.60;;
65658;SDS011;60181;53.258;6.932;2024-01-30T14:45:10;54.90;;;18.60;;
65658;SDS011;60181;53.258;6.932;2024-01-30T14:49:22;54.90;;;18.60;;
65658;SDS011;60181;53.258;6.932;2024-01-30T14:53:34;53.60;;;17.40;;
65658;SDS011;60181;53.258;6.932;2024-01-30T14:57:46;53.60;;;17.40;;
65658;SDS011;60181;53.258;6.932;2024-01-30T15:01:58;43.90;;;13.50;;
65658;SDS011;60181;53.258;6.932;2024-01-30T15:06:11;43.90;;;13.50;;
65658;SDS011;60181;53.258;6.932;2024-01-30T15:10:22;41.20;;;13.20;;
65658;SDS011;60181;53.258;6.932;2024-01-30T15:14:34;41.20;;;13.20;;
65658;SDS011;60181;53.258;6.932;2024-01-30T15:18:46;41.20;;;13.20;;
65658;SDS011;60181;53.258;6.932;2024-01-30T15:22:58;40.60;;;12.90;;
65658;SDS011;60181;53.258;6.932;2024-01-30T15:27:10;40.60;;;12.90;;
65658;SDS011;60181;53.258;6.932;2024-01-30T15:31:22;37.00;;;12.60;;
65658;SDS011;60181;53.258;6.932;2024-01-30T15:35:34;37.00;;;12.60;;
65658;SDS011;60181;53.258;6.932;2024-01-30T15:39:46;34.90;;;11.70;;
65658;SDS011;60181;53.258;6.932;2024-01-30T15:43:58;34.90;;;11.70;;
65658;SDS011;60181;53.258;6.932;2024-01-30T15:48:10;34.90;;;11.70;;
65658;SDS011;60181;53.258;6.932;2024-01-30T15:52:22;30.40;;;10.30;;
65658;SDS011;60181;53.258;6.932;2024-01-30T15:56:34;30.40;;;10.30;;
65658;SDS011;60181;53.258;6.932;2024-01-30T16:00:46;32.20;;;11.10;;
65658;SDS011;60181;53.258;6.932;2024-01-30T16:04:58;32.20;;;11.10;;
65658;SDS011;60181;53.258;6.932;2024-01-30T16:09:10;32.20;;;11.10;;
65658;SDS011;60181;53.258;6.932;2024-01-30T16:13:22;36.80;;;12.30;;
65658;SDS011;60181;53.258;6.932;2024-01-30T16:17:34;36.80;;;12.30;;
65658;SDS011;60181;53.258;6.932;2024-01-30T16:21:46;37.30;;;12.50;;
65658;SDS011;60181;53.258;6.932;2024-01-30T16:25:58;37.30;;;12.50;;
65658;SDS011;60181;53.258;6.932;2024-01-30T16:30:10;31.00;;;12.30;;
65658;SDS011;60181;53.258;6.932;2024-01-30T16:34:22;31.00;;;12.30;;
65658;SDS011;60181;53.258;6.932;2024-01-30T16:38:34;31.00;;;12.30;;
65658;SDS011;60181;53.258;6.932;2024-01-30T16:42:46;35.80;;;13.20;;
65658;SDS011;60181;53.258;6.932;2024-01-30T16:46:58;35.80;;;13.20;;
65658;SDS011;60181;53.258;6.932;2024-01-30T16:51:10;38.40;;;12.90;;
65658;SDS011;60181;53.258;6.932;2024-01-30T16:55:22;38.40;;;12.90;;
65658;SDS011;60181;53.258;6.932;2024-01-30T16:59:34;38.40;;;12.90;;
65658;SDS011;60181;53.258;6.932;2024-01-30T17:03:46;35.20;;;12.30;;
65658;SDS011;60181;53.258;6.932;2024-01-30T17:07:58;35.20;;;12.30;;
65658;SDS011;60181;53.258;6.932;2024-01-30T17:12:09;39.30;;;12.70;;
65658;SDS011;60181;53.258;6.932;2024-01-30T17:16:21;39.30;;;12.70;;
65658;SDS011;60181;53.258;6.932;2024-01-30T17:20:33;31.70;;;11.90;;
65658;SDS011;60181;53.258;6.932;2024-01-30T17:24:45;31.70;;;11.90;;
65658;SDS011;60181;53.258;6.932;2024-01-30T17:28:57;31.70;;;11.90;;
65658;SDS011;60181;53.258;6.932;2024-01-30T17:33:09;33.80;;;12.70;;
65658;SDS011;60181;53.258;6.932;2024-01-30T17:37:21;33.80;;;12.70;;
65658;SDS011;60181;53.258;6.932;2024-01-30T17:41:33;31.70;;;11.70;;
65658;SDS011;60181;53.258;6.932;2024-01-30T17:45:45;31.70;;;11.70;;
65658;SDS011;60181;53.258;6.932;2024-01-30T17:49:57;33.80;;;12.10;;
65658;SDS011;60181;53.258;6.932;2024-01-30T17:54:09;33.80;;;12.10;;
65658;SDS011;60181;53.258;6.932;2024-01-30T17:58:21;33.80;;;12.10;;
65658;SDS011;60181;53.258;6.932;2024-01-30T18:02:33;30.10;;;11.20;;
65658;SDS011;60181;53.258;6.932;2024-01-30T18:06:52;30.10;;;11.20;;
65658;SDS011;60181;53.258;6.932;2024-01-30T18:10:57;29.30;;;11.10;;
65658;SDS011;60181;53.258;6.932;2024-01-30T18:15:09;29.30;;;11.10;;
65658;SDS011;60181;53.258;6.932;2024-01-30T18:19:21;29.30;;;11.10;;
65658;SDS011;60181;53.258;6.932;2024-01-30T18:23:33;30.70;;;10.90;;
65658;SDS011;60181;53.258;6.932;2024-01-30T18:27:45;30.70;;;10.90;;
65658;SDS011;60181;53.258;6.932;2024-01-30T18:31:57;31.60;;;10.30;;
65658;SDS011;60181;53.258;6.932;2024-01-30T18:36:09;31.60;;;10.30;;
65658;SDS011;60181;53.258;6.932;2024-01-30T18:40:21;27.20;;;9.70;;
65658;SDS011;60181;53.258;6.932;2024-01-30T18:44:33;27.20;;;9.70;;
65658;SDS011;60181;53.258;6.932;2024-01-30T18:48:45;27.20;;;9.70;;
65658;SDS011;60181;53.258;6.932;2024-01-30T18:52:57;31.70;;;10.20;;
65658;SDS011;60181;53.258;6.932;2024-01-30T18:57:09;31.70;;;10.20;;
65658;SDS011;60181;53.258;6.932;2024-01-30T19:01:21;23.30;;;9.00;;
65658;SDS011;60181;53.258;6.932;2024-01-30T19:05:33;23.30;;;9.00;;
65658;SDS011;60181;53.258;6.932;2024-01-30T19:09:46;22.90;;;9.20;;
65658;SDS011;60181;53.258;6.932;2024-01-30T19:13:57;22.90;;;9.20;;
65658;SDS011;60181;53.258;6.932;2024-01-30T19:18:09;22.90;;;9.20;;
65658;SDS011;60181;53.258;6.932;2024-01-30T19:22:21;21.00;;;8.80;;
65658;SDS011;60181;53.258;6.932;2024-01-30T19:26:33;21.00;;;8.80;;
65658;SDS011;60181;53.258;6.932;2024-01-30T19:30:45;21.00;;;8.60;;
65658;SDS011;60181;53.258;6.932;2024-01-30T19:34:57;21.00;;;8.60;;
65658;SDS011;60181;53.258;6.932;2024-01-30T19:39:09;21.00;;;8.60;;
65658;SDS011;60181;53.258;6.932;2024-01-30T19:43:21;18.90;;;7.90;;
65658;SDS011;60181;53.258;6.932;2024-01-30T19:47:33;18.90;;;7.90;;
65658;SDS011;60181;53.258;6.932;2024-01-30T19:51:45;18.90;;;7.40;;
65658;SDS011;60181;53.258;6.932;2024-01-30T19:55:57;18.90;;;7.40;;
65658;SDS011;60181;53.258;6.932;2024-01-30T20:00:10;21.60;;;8.10;;
65658;SDS011;60181;53.258;6.932;2024-01-30T20:04:21;21.60;;;8.10;;
65658;SDS011;60181;53.258;6.932;2024-01-30T20:08:33;21.60;;;8.10;;
65658;SDS011;60181;53.258;6.932;2024-01-30T20:12:45;18.30;;;6.70;;
65658;SDS011;60181;53.258;6.932;2024-01-30T20:16:57;18.30;;;6.70;;
65658;SDS011;60181;53.258;6.932;2024-01-30T20:21:09;14.50;;;5.20;;
65658;SDS011;60181;53.258;6.932;2024-01-30T20:25:21;14.50;;;5.20;;
65658;SDS011;60181;53.258;6.932;2024-01-30T20:29:33;14.50;;;5.20;;
65658;SDS011;60181;53.258;6.932;2024-01-30T20:33:45;14.00;;;5.50;;
65658;SDS011;60181;53.258;6.932;2024-01-30T20:37:57;14.00;;;5.50;;
65658;SDS011;60181;53.258;6.932;2024-01-30T20:42:10;15.40;;;5.10;;
65658;SDS011;60181;53.258;6.932;2024-01-30T20:46:21;15.40;;;5.10;;
65658;SDS011;60181;53.258;6.932;2024-01-30T20:50:33;16.20;;;5.30;;
65658;SDS011;60181;53.258;6.932;2024-01-30T20:54:45;16.20;;;5.30;;
65658;SDS011;60181;53.258;6.932;2024-01-30T20:58:57;16.20;;;5.30;;
65658;SDS011;60181;53.258;6.932;2024-01-30T21:03:10;15.70;;;5.30;;
65658;SDS011;60181;53.258;6.932;2024-01-30T21:07:21;15.70;;;5.30;;
65658;SDS011;60181;53.258;6.932;2024-01-30T21:11:33;13.20;;;5.20;;
65658;SDS011;60181;53.258;6.932;2024-01-30T21:15:45;13.20;;;5.20;;
65658;SDS011;60181;53.258;6.932;2024-01-30T21:19:57;11.60;;;4.80;;
65658;SDS011;60181;53.258;6.932;2024-01-30T21:24:09;11.60;;;4.80;;
65658;SDS011;60181;53.258;6.932;2024-01-30T21:28:21;11.60;;;4.80;;
65658;SDS011;60181;53.258;6.932;2024-01-30T21:32:33;13.50;;;4.60;;
65658;SDS011;60181;53.258;6.932;2024-01-30T21:36:45;13.50;;;4.60;;
65658;SDS011;60181;53.258;6.932;2024-01-30T21:40:57;11.30;;;4.70;;
65658;SDS011;60181;53.258;6.932;2024-01-30T21:45:10;11.30;;;4.70;;
65658;SDS011;60181;53.258;6.932;2024-01-30T21:49:21;11.30;;;4.70;;
65658;SDS011;60181;53.258;6.932;2024-01-30T21:53:33;10.70;;;4.40;;
65658;SDS011;60181;53.258;6.932;2024-01-30T21:57:45;10.70;;;4.40;;
65658;SDS011;60181;53.258;6.932;2024-01-30T22:01:57;11.10;;;4.20;;
65658;SDS011;60181;53.258;6.932;2024-01-30T22:06:09;11.10;;;4.20;;
65658;SDS011;60181;53.258;6.932;2024-01-30T22:10:21;12.40;;;3.90;;
65658;SDS011;60181;53.258;6.932;2024-01-30T22:14:33;12.40;;;3.90;;
65658;SDS011;60181;53.258;6.932;2024-01-30T22:18:45;12.40;;;3.90;;
65658;SDS011;60181;53.258;6.932;2024-01-30T22:22:57;9.70;;;3.60;;
65658;SDS011;60181;53.258;6.932;2024-01-30T22:27:09;9.70;;;3.60;;
65658;SDS011;60181;53.258;6.932;2024-01-30T22:31:21;10.70;;;3.20;;
65658;SDS011;60181;53.258;6.932;2024-01-30T22:35:33;10.70;;;3.20;;
65658;SDS011;60181;53.258;6.932;2024-01-30T22:39:45;8.40;;;2.50;;
65658;SDS011;60181;53.258;6.932;2024-01-30T22:43:57;8.40;;;2.50;;
65658;SDS011;60181;53.258;6.932;2024-01-30T22:48:09;8.40;;;2.50;;
65658;SDS011;60181;53.258;6.932;2024-01-30T22:52:21;12.50;;;2.00;;
65658;SDS011;60181;53.258;6.932;2024-01-30T22:56:33;12.50;;;2.00;;
65658;SDS011;60181;53.258;6.932;2024-01-30T23:00:45;10.90;;;1.90;;
65658;SDS011;60181;53.258;6.932;2024-01-30T23:04:57;10.90;;;1.90;;
65658;SDS011;60181;53.258;6.932;2024-01-30T23:09:09;10.90;;;1.90;;
65658;SDS011;60181;53.258;6.932;2024-01-30T23:13:21;9.00;;;1.50;;
65658;SDS011;60181;53.258;6.932;2024-01-30T23:17:33;9.00;;;1.50;;
65658;SDS011;60181;53.258;6.932;2024-01-30T23:21:45;10.60;;;1.50;;
65658;SDS011;60181;53.258;6.932;2024-01-30T23:25:57;10.60;;;1.50;;
65658;SDS011;60181;53.258;6.932;2024-01-30T23:30:09;6.70;;;1.20;;
65658;SDS011;60181;53.258;6.932;2024-01-30T23:34:21;6.70;;;1.20;;
65658;SDS011;60181;53.258;6.932;2024-01-30T23:38:33;6.70;;;1.20;;
65658;SDS011;60181;53.258;6.932;2024-01-30T23:42:45;7.30;;;1.30;;
65658;SDS011;60181;53.258;6.932;2024-01-30T23:46:57;7.30;;;1.30;;
65658;SDS011;60181;53.258;6.932;2024-01-30T23:51:10;9.70;;;1.30;;
65658;SDS011;60181;53.258;6.932;2024-01-30T23:55:21;9.70;;;1.30;;
65658;SDS011;60181;53.258;6.932;2024-01-30T23:59:33;9.70;;;1.30;;
